Port-Cartier, Canada
Current Conditions -  °F | °C
As of 1:00 PM on Friday 28 Nov 2014 (Local Time) from CYZV Reporting Station
Broken Clouds Broken Clouds  
Wind Chill: 18°   Ceiling: 22000
Heat Index: 18°   Visibility: 30mi
Dew Point:   Wind: 3mph
Humidity: 45%   Direction: 180°S
Pressure: 30.04"   Gusts: NA
Location:  50.03°N, 66.89°W
Report Text: CYZV 281800Z 18003KT 150V320 30SM FEW050 BKN220 M08/M18 A3004 RMK SC1CI4 SLP178
Loading
Personal Weather Stations






























Interactive Weather Map New forecast layout! Learn more

10-Day Weather Forecast

Advertisements
Track Severe Weather on mobile